sensor_id;sensor_type;location;lat;lon;timestamp;P1;durP1;ratioP1;P2;durP2;ratioP2
19225;SDS011;9747;48.536;12.522;2023-07-30T00:01:08;1.70;;;1.60;;
19225;SDS011;9747;48.536;12.522;2023-07-30T00:03:36;1.50;;;1.50;;
19225;SDS011;9747;48.536;12.522;2023-07-30T00:06:03;1.40;;;1.40;;
19225;SDS011;9747;48.536;12.522;2023-07-30T00:08:32;1.40;;;1.40;;
19225;SDS011;9747;48.536;12.522;2023-07-30T00:10:59;1.58;;;1.50;;
19225;SDS011;9747;48.536;12.522;2023-07-30T00:13:27;1.63;;;1.60;;
19225;SDS011;9747;48.536;12.522;2023-07-30T00:15:54;1.70;;;1.60;;
19225;SDS011;9747;48.536;12.522;2023-07-30T00:18:22;1.70;;;1.45;;
19225;SDS011;9747;48.536;12.522;2023-07-30T00:20:49;1.40;;;1.40;;
19225;SDS011;9747;48.536;12.522;2023-07-30T00:23:17;1.40;;;1.40;;
19225;SDS011;9747;48.536;12.522;2023-07-30T00:25:46;1.50;;;1.40;;
19225;SDS011;9747;48.536;12.522;2023-07-30T00:28:13;1.45;;;1.35;;
19225;SDS011;9747;48.536;12.522;2023-07-30T00:30:41;1.80;;;1.70;;
19225;SDS011;9747;48.536;12.522;2023-07-30T00:33:08;1.55;;;1.50;;
19225;SDS011;9747;48.536;12.522;2023-07-30T00:35:36;1.63;;;1.52;;
19225;SDS011;9747;48.536;12.522;2023-07-30T00:38:03;1.80;;;1.70;;
19225;SDS011;9747;48.536;12.522;2023-07-30T00:40:31;1.52;;;1.52;;
19225;SDS011;9747;48.536;12.522;2023-07-30T00:43:01;1.55;;;1.55;;
19225;SDS011;9747;48.536;12.522;2023-07-30T00:45:29;1.60;;;1.50;;
19225;SDS011;9747;48.536;12.522;2023-07-30T00:47:56;1.60;;;1.50;;
19225;SDS011;9747;48.536;12.522;2023-07-30T00:50:24;1.98;;;1.88;;
19225;SDS011;9747;48.536;12.522;2023-07-30T00:52:51;1.52;;;1.52;;
19225;SDS011;9747;48.536;12.522;2023-07-30T00:55:19;1.98;;;1.88;;
19225;SDS011;9747;48.536;12.522;2023-07-30T00:57:47;1.70;;;1.60;;
19225;SDS011;9747;48.536;12.522;2023-07-30T01:00:16;1.60;;;1.60;;
19225;SDS011;9747;48.536;12.522;2023-07-30T01:02:44;1.67;;;1.58;;
19225;SDS011;9747;48.536;12.522;2023-07-30T01:05:11;1.60;;;1.60;;
19225;SDS011;9747;48.536;12.522;2023-07-30T01:07:39;1.80;;;1.70;;
19225;SDS011;9747;48.536;12.522;2023-07-30T01:10:07;1.90;;;1.80;;
19225;SDS011;9747;48.536;12.522;2023-07-30T01:12:35;1.50;;;1.50;;
19225;SDS011;9747;48.536;12.522;2023-07-30T01:15:04;1.45;;;1.45;;
19225;SDS011;9747;48.536;12.522;2023-07-30T01:17:34;1.75;;;1.65;;
19225;SDS011;9747;48.536;12.522;2023-07-30T01:20:01;1.83;;;1.73;;
19225;SDS011;9747;48.536;12.522;2023-07-30T01:22:31;1.55;;;1.55;;
19225;SDS011;9747;48.536;12.522;2023-07-30T01:24:58;1.50;;;1.50;;
19225;SDS011;9747;48.536;12.522;2023-07-30T01:27:31;1.27;;;1.27;;
19225;SDS011;9747;48.536;12.522;2023-07-30T01:30:03;1.75;;;1.65;;
19225;SDS011;9747;48.536;12.522;2023-07-30T01:32:38;1.67;;;1.58;;
19225;SDS011;9747;48.536;12.522;2023-07-30T01:35:08;1.50;;;1.50;;
19225;SDS011;9747;48.536;12.522;2023-07-30T01:37:37;1.88;;;1.77;;
19225;SDS011;9747;48.536;12.522;2023-07-30T01:40:06;1.60;;;1.50;;
19225;SDS011;9747;48.536;12.522;2023-07-30T01:42:35;1.60;;;1.50;;
19225;SDS011;9747;48.536;12.522;2023-07-30T01:45:04;1.40;;;1.40;;
19225;SDS011;9747;48.536;12.522;2023-07-30T01:47:32;1.55;;;1.45;;
19225;SDS011;9747;48.536;12.522;2023-07-30T01:50:00;1.48;;;1.38;;
19225;SDS011;9747;48.536;12.522;2023-07-30T01:52:28;1.67;;;1.60;;
19225;SDS011;9747;48.536;12.522;2023-07-30T01:54:57;1.38;;;1.38;;
19225;SDS011;9747;48.536;12.522;2023-07-30T01:57:26;1.58;;;1.50;;
19225;SDS011;9747;48.536;12.522;2023-07-30T01:59:53;1.38;;;1.33;;
19225;SDS011;9747;48.536;12.522;2023-07-30T02:02:21;1.50;;;1.50;;
19225;SDS011;9747;48.536;12.522;2023-07-30T02:04:48;1.70;;;1.60;;
19225;SDS011;9747;48.536;12.522;2023-07-30T02:07:16;1.52;;;1.50;;
19225;SDS011;9747;48.536;12.522;2023-07-30T02:09:44;1.63;;;1.52;;
19225;SDS011;9747;48.536;12.522;2023-07-30T02:12:13;1.60;;;1.50;;
19225;SDS011;9747;48.536;12.522;2023-07-30T02:14:40;2.15;;;1.60;;
19225;SDS011;9747;48.536;12.522;2023-07-30T02:17:07;1.70;;;1.60;;
19225;SDS011;9747;48.536;12.522;2023-07-30T02:19:35;1.40;;;1.40;;
19225;SDS011;9747;48.536;12.522;2023-07-30T02:22:02;1.90;;;1.33;;
19225;SDS011;9747;48.536;12.522;2023-07-30T02:24:32;1.52;;;1.48;;
19225;SDS011;9747;48.536;12.522;2023-07-30T02:26:59;1.48;;;1.40;;
19225;SDS011;9747;48.536;12.522;2023-07-30T02:29:28;1.63;;;1.52;;
19225;SDS011;9747;48.536;12.522;2023-07-30T02:31:56;2.53;;;1.70;;
19225;SDS011;9747;48.536;12.522;2023-07-30T02:34:24;1.55;;;1.45;;
19225;SDS011;9747;48.536;12.522;2023-07-30T02:36:52;1.20;;;1.20;;
19225;SDS011;9747;48.536;12.522;2023-07-30T02:39:19;1.48;;;1.38;;
19225;SDS011;9747;48.536;12.522;2023-07-30T02:41:47;1.48;;;1.38;;
19225;SDS011;9747;48.536;12.522;2023-07-30T02:44:15;1.27;;;1.27;;
19225;SDS011;9747;48.536;12.522;2023-07-30T02:46:43;1.55;;;1.50;;
19225;SDS011;9747;48.536;12.522;2023-07-30T02:49:11;1.25;;;1.25;;
19225;SDS011;9747;48.536;12.522;2023-07-30T02:51:38;1.35;;;1.33;;
19225;SDS011;9747;48.536;12.522;2023-07-30T02:54:08;1.40;;;1.40;;
19225;SDS011;9747;48.536;12.522;2023-07-30T02:56:35;1.40;;;1.40;;
19225;SDS011;9747;48.536;12.522;2023-07-30T02:59:03;1.35;;;1.35;;
19225;SDS011;9747;48.536;12.522;2023-07-30T03:01:30;1.33;;;1.30;;
19225;SDS011;9747;48.536;12.522;2023-07-30T03:03:59;1.40;;;1.40;;
19225;SDS011;9747;48.536;12.522;2023-07-30T03:06:27;1.30;;;1.30;;
19225;SDS011;9747;48.536;12.522;2023-07-30T03:08:55;1.70;;;1.60;;
19225;SDS011;9747;48.536;12.522;2023-07-30T03:11:23;1.30;;;1.30;;
19225;SDS011;9747;48.536;12.522;2023-07-30T03:13:50;1.40;;;1.40;;
19225;SDS011;9747;48.536;12.522;2023-07-30T03:16:18;1.50;;;1.50;;
19225;SDS011;9747;48.536;12.522;2023-07-30T03:18:45;1.50;;;1.40;;
19225;SDS011;9747;48.536;12.522;2023-07-30T03:21:14;1.30;;;1.30;;
19225;SDS011;9747;48.536;12.522;2023-07-30T03:23:41;1.30;;;1.30;;
19225;SDS011;9747;48.536;12.522;2023-07-30T03:26:09;1.42;;;1.40;;
19225;SDS011;9747;48.536;12.522;2023-07-30T03:28:37;1.58;;;1.48;;
19225;SDS011;9747;48.536;12.522;2023-07-30T03:31:04;1.48;;;1.45;;
19225;SDS011;9747;48.536;12.522;2023-07-30T03:33:31;1.60;;;1.50;;
19225;SDS011;9747;48.536;12.522;2023-07-30T03:36:00;1.60;;;1.50;;
19225;SDS011;9747;48.536;12.522;2023-07-30T03:38:29;2.47;;;1.40;;
19225;SDS011;9747;48.536;12.522;2023-07-30T03:40:56;1.42;;;1.40;;
19225;SDS011;9747;48.536;12.522;2023-07-30T03:43:24;1.60;;;1.50;;
19225;SDS011;9747;48.536;12.522;2023-07-30T03:45:52;1.40;;;1.40;;
19225;SDS011;9747;48.536;12.522;2023-07-30T03:48:19;1.27;;;1.27;;
19225;SDS011;9747;48.536;12.522;2023-07-30T03:50:46;1.65;;;1.52;;
19225;SDS011;9747;48.536;12.522;2023-07-30T03:53:14;1.40;;;1.30;;
19225;SDS011;9747;48.536;12.522;2023-07-30T03:55:43;1.58;;;1.40;;
19225;SDS011;9747;48.536;12.522;2023-07-30T03:58:10;1.80;;;1.70;;
19225;SDS011;9747;48.536;12.522;2023-07-30T04:00:38;1.70;;;1.60;;
19225;SDS011;9747;48.536;12.522;2023-07-30T04:03:05;1.85;;;1.60;;
19225;SDS011;9747;48.536;12.522;2023-07-30T04:05:33;1.48;;;1.38;;
19225;SDS011;9747;48.536;12.522;2023-07-30T04:08:01;1.50;;;1.50;;
19225;SDS011;9747;48.536;12.522;2023-07-30T04:10:29;1.63;;;1.52;;
19225;SDS011;9747;48.536;12.522;2023-07-30T04:12:58;1.42;;;1.40;;
19225;SDS011;9747;48.536;12.522;2023-07-30T04:15:25;1.58;;;1.48;;
19225;SDS011;9747;48.536;12.522;2023-07-30T04:17:53;1.40;;;1.40;;
19225;SDS011;9747;48.536;12.522;2023-07-30T04:20:20;1.40;;;1.40;;
19225;SDS011;9747;48.536;12.522;2023-07-30T04:22:47;1.75;;;1.40;;
19225;SDS011;9747;48.536;12.522;2023-07-30T04:25:14;1.40;;;1.30;;
19225;SDS011;9747;48.536;12.522;2023-07-30T04:27:42;1.60;;;1.52;;
19225;SDS011;9747;48.536;12.522;2023-07-30T04:30:11;1.33;;;1.23;;
19225;SDS011;9747;48.536;12.522;2023-07-30T04:32:39;1.20;;;1.20;;
19225;SDS011;9747;48.536;12.522;2023-07-30T04:35:07;1.40;;;1.40;;
19225;SDS011;9747;48.536;12.522;2023-07-30T04:37:34;1.30;;;1.20;;
19225;SDS011;9747;48.536;12.522;2023-07-30T04:40:02;1.30;;;1.20;;
19225;SDS011;9747;48.536;12.522;2023-07-30T04:42:31;1.45;;;1.27;;
19225;SDS011;9747;48.536;12.522;2023-07-30T04:44:58;1.30;;;1.27;;
19225;SDS011;9747;48.536;12.522;2023-07-30T04:47:27;1.20;;;1.20;;
19225;SDS011;9747;48.536;12.522;2023-07-30T04:49:55;1.25;;;1.25;;
19225;SDS011;9747;48.536;12.522;2023-07-30T04:52:22;1.17;;;1.17;;
19225;SDS011;9747;48.536;12.522;2023-07-30T04:54:50;1.52;;;1.42;;
19225;SDS011;9747;48.536;12.522;2023-07-30T04:57:17;1.20;;;1.20;;
19225;SDS011;9747;48.536;12.522;2023-07-30T04:59:45;1.17;;;1.17;;
19225;SDS011;9747;48.536;12.522;2023-07-30T05:02:12;1.08;;;1.08;;
19225;SDS011;9747;48.536;12.522;2023-07-30T05:04:41;1.30;;;1.30;;
19225;SDS011;9747;48.536;12.522;2023-07-30T05:07:08;1.38;;;1.30;;
19225;SDS011;9747;48.536;12.522;2023-07-30T05:09:36;1.30;;;1.20;;
19225;SDS011;9747;48.536;12.522;2023-07-30T05:12:04;1.20;;;1.17;;
19225;SDS011;9747;48.536;12.522;2023-07-30T05:14:31;1.20;;;1.20;;
19225;SDS011;9747;48.536;12.522;2023-07-30T05:16:59;1.10;;;1.10;;
19225;SDS011;9747;48.536;12.522;2023-07-30T05:19:28;1.17;;;1.17;;
19225;SDS011;9747;48.536;12.522;2023-07-30T05:21:56;1.20;;;1.20;;
19225;SDS011;9747;48.536;12.522;2023-07-30T05:24:24;1.27;;;1.25;;
19225;SDS011;9747;48.536;12.522;2023-07-30T05:26:52;1.98;;;1.30;;
19225;SDS011;9747;48.536;12.522;2023-07-30T05:29:19;1.40;;;1.40;;
19225;SDS011;9747;48.536;12.522;2023-07-30T05:31:46;1.30;;;1.30;;
19225;SDS011;9747;48.536;12.522;2023-07-30T05:34:14;1.25;;;1.25;;
19225;SDS011;9747;48.536;12.522;2023-07-30T05:36:41;1.35;;;1.27;;
19225;SDS011;9747;48.536;12.522;2023-07-30T05:39:10;1.45;;;1.35;;
19225;SDS011;9747;48.536;12.522;2023-07-30T05:41:37;1.30;;;1.20;;
19225;SDS011;9747;48.536;12.522;2023-07-30T05:44:05;1.20;;;1.20;;
19225;SDS011;9747;48.536;12.522;2023-07-30T05:46:32;1.20;;;1.20;;
19225;SDS011;9747;48.536;12.522;2023-07-30T05:49:00;1.50;;;1.40;;
19225;SDS011;9747;48.536;12.522;2023-07-30T05:51:27;1.20;;;1.20;;
19225;SDS011;9747;48.536;12.522;2023-07-30T05:53:55;1.20;;;1.20;;
19225;SDS011;9747;48.536;12.522;2023-07-30T05:56:23;1.17;;;1.17;;
19225;SDS011;9747;48.536;12.522;2023-07-30T05:58:51;1.10;;;1.10;;
19225;SDS011;9747;48.536;12.522;2023-07-30T06:01:19;1.10;;;1.10;;
19225;SDS011;9747;48.536;12.522;2023-07-30T06:03:46;1.20;;;1.20;;
19225;SDS011;9747;48.536;12.522;2023-07-30T06:06:14;1.00;;;1.00;;
19225;SDS011;9747;48.536;12.522;2023-07-30T06:08:41;1.10;;;1.10;;
19225;SDS011;9747;48.536;12.522;2023-07-30T06:11:08;1.48;;;1.38;;
19225;SDS011;9747;48.536;12.522;2023-07-30T06:13:37;1.30;;;1.30;;
19225;SDS011;9747;48.536;12.522;2023-07-30T06:16:05;1.30;;;1.30;;
19225;SDS011;9747;48.536;12.522;2023-07-30T06:18:32;1.13;;;1.13;;
19225;SDS011;9747;48.536;12.522;2023-07-30T06:21:00;1.23;;;1.23;;
19225;SDS011;9747;48.536;12.522;2023-07-30T06:23:27;1.10;;;1.10;;
19225;SDS011;9747;48.536;12.522;2023-07-30T06:25:55;1.17;;;1.17;;
19225;SDS011;9747;48.536;12.522;2023-07-30T06:28:22;1.10;;;1.10;;
19225;SDS011;9747;48.536;12.522;2023-07-30T06:30:51;1.05;;;1.05;;
19225;SDS011;9747;48.536;12.522;2023-07-30T06:33:18;1.15;;;1.15;;
19225;SDS011;9747;48.536;12.522;2023-07-30T06:35:46;1.13;;;1.13;;
19225;SDS011;9747;48.536;12.522;2023-07-30T06:38:13;1.30;;;1.30;;
19225;SDS011;9747;48.536;12.522;2023-07-30T06:40:41;1.00;;;1.00;;
19225;SDS011;9747;48.536;12.522;2023-07-30T06:43:08;1.10;;;1.10;;
19225;SDS011;9747;48.536;12.522;2023-07-30T06:45:35;1.00;;;1.00;;
19225;SDS011;9747;48.536;12.522;2023-07-30T06:48:04;1.23;;;1.20;;
19225;SDS011;9747;48.536;12.522;2023-07-30T06:50:32;1.50;;;1.17;;
19225;SDS011;9747;48.536;12.522;2023-07-30T06:52:59;0.90;;;0.90;;
19225;SDS011;9747;48.536;12.522;2023-07-30T06:55:27;1.33;;;1.23;;
19225;SDS011;9747;48.536;12.522;2023-07-30T06:57:54;1.10;;;1.10;;
19225;SDS011;9747;48.536;12.522;2023-07-30T07:00:21;1.00;;;1.00;;
19225;SDS011;9747;48.536;12.522;2023-07-30T07:02:49;1.30;;;1.30;;
19225;SDS011;9747;48.536;12.522;2023-07-30T07:05:18;1.50;;;1.40;;
19225;SDS011;9747;48.536;12.522;2023-07-30T07:07:45;1.23;;;1.23;;
19225;SDS011;9747;48.536;12.522;2023-07-30T07:10:13;1.20;;;1.20;;
19225;SDS011;9747;48.536;12.522;2023-07-30T07:12:41;2.08;;;1.90;;
19225;SDS011;9747;48.536;12.522;2023-07-30T07:15:09;1.52;;;1.50;;
19225;SDS011;9747;48.536;12.522;2023-07-30T07:17:36;1.50;;;1.40;;
19225;SDS011;9747;48.536;12.522;2023-07-30T07:20:04;1.70;;;1.60;;
19225;SDS011;9747;48.536;12.522;2023-07-30T07:22:34;1.30;;;1.30;;
19225;SDS011;9747;48.536;12.522;2023-07-30T07:25:01;1.88;;;1.70;;
19225;SDS011;9747;48.536;12.522;2023-07-30T07:27:29;1.75;;;1.65;;
19225;SDS011;9747;48.536;12.522;2023-07-30T07:29:57;1.73;;;1.45;;
19225;SDS011;9747;48.536;12.522;2023-07-30T07:32:25;1.70;;;1.60;;
19225;SDS011;9747;48.536;12.522;2023-07-30T07:34:53;1.58;;;1.48;;
19225;SDS011;9747;48.536;12.522;2023-07-30T07:37:20;1.70;;;1.52;;
19225;SDS011;9747;48.536;12.522;2023-07-30T07:39:49;2.45;;;1.55;;
19225;SDS011;9747;48.536;12.522;2023-07-30T07:42:16;1.90;;;1.65;;
19225;SDS011;9747;48.536;12.522;2023-07-30T07:44:44;1.67;;;1.58;;
19225;SDS011;9747;48.536;12.522;2023-07-30T07:47:12;1.60;;;1.55;;
19225;SDS011;9747;48.536;12.522;2023-07-30T07:49:39;2.38;;;1.42;;
19225;SDS011;9747;48.536;12.522;2023-07-30T07:52:07;1.60;;;1.50;;
19225;SDS011;9747;48.536;12.522;2023-07-30T07:54:34;1.58;;;1.50;;
19225;SDS011;9747;48.536;12.522;2023-07-30T07:57:03;2.08;;;1.42;;
19225;SDS011;9747;48.536;12.522;2023-07-30T07:59:31;1.80;;;1.70;;
19225;SDS011;9747;48.536;12.522;2023-07-30T08:01:58;1.80;;;1.67;;
19225;SDS011;9747;48.536;12.522;2023-07-30T08:04:26;3.45;;;1.67;;
19225;SDS011;9747;48.536;12.522;2023-07-30T08:06:53;1.80;;;1.70;;
19225;SDS011;9747;48.536;12.522;2023-07-30T08:09:25;1.67;;;1.58;;
19225;SDS011;9747;48.536;12.522;2023-07-30T08:11:52;1.90;;;1.80;;
19225;SDS011;9747;48.536;12.522;2023-07-30T08:14:21;1.60;;;1.50;;
19225;SDS011;9747;48.536;12.522;2023-07-30T08:16:48;2.05;;;1.80;;
19225;SDS011;9747;48.536;12.522;2023-07-30T08:19:16;1.83;;;1.73;;
19225;SDS011;9747;48.536;12.522;2023-07-30T08:21:43;1.80;;;1.70;;
19225;SDS011;9747;48.536;12.522;2023-07-30T08:24:11;1.67;;;1.58;;
19225;SDS011;9747;48.536;12.522;2023-07-30T08:26:38;1.88;;;1.63;;
19225;SDS011;9747;48.536;12.522;2023-07-30T08:29:06;2.45;;;1.60;;
19225;SDS011;9747;48.536;12.522;2023-07-30T08:31:36;1.70;;;1.60;;
19225;SDS011;9747;48.536;12.522;2023-07-30T08:34:04;1.77;;;1.63;;
19225;SDS011;9747;48.536;12.522;2023-07-30T08:36:31;1.52;;;1.52;;
19225;SDS011;9747;48.536;12.522;2023-07-30T08:38:59;1.80;;;1.70;;
19225;SDS011;9747;48.536;12.522;2023-07-30T08:41:27;1.80;;;1.70;;
19225;SDS011;9747;48.536;12.522;2023-07-30T08:43:55;1.80;;;1.70;;
19225;SDS011;9747;48.536;12.522;2023-07-30T08:46:23;1.90;;;1.80;;
19225;SDS011;9747;48.536;12.522;2023-07-30T08:48:51;1.77;;;1.67;;
19225;SDS011;9747;48.536;12.522;2023-07-30T08:51:20;1.73;;;1.63;;
19225;SDS011;9747;48.536;12.522;2023-07-30T08:53:50;1.77;;;1.67;;
19225;SDS011;9747;48.536;12.522;2023-07-30T08:56:18;1.75;;;1.65;;
19225;SDS011;9747;48.536;12.522;2023-07-30T08:58:46;1.70;;;1.60;;
19225;SDS011;9747;48.536;12.522;2023-07-30T09:01:14;1.55;;;1.45;;
19225;SDS011;9747;48.536;12.522;2023-07-30T09:03:44;1.70;;;1.60;;
19225;SDS011;9747;48.536;12.522;2023-07-30T09:06:13;1.63;;;1.55;;
19225;SDS011;9747;48.536;12.522;2023-07-30T09:08:40;1.70;;;1.60;;
19225;SDS011;9747;48.536;12.522;2023-07-30T09:11:08;1.52;;;1.42;;
19225;SDS011;9747;48.536;12.522;2023-07-30T09:13:39;1.63;;;1.52;;
19225;SDS011;9747;48.536;12.522;2023-07-30T09:16:10;1.60;;;1.50;;
19225;SDS011;9747;48.536;12.522;2023-07-30T09:18:40;1.42;;;1.42;;
19225;SDS011;9747;48.536;12.522;2023-07-30T09:21:09;1.88;;;1.50;;
19225;SDS011;9747;48.536;12.522;2023-07-30T09:23:42;1.70;;;1.60;;
19225;SDS011;9747;48.536;12.522;2023-07-30T09:26:10;1.60;;;1.50;;
19225;SDS011;9747;48.536;12.522;2023-07-30T09:28:39;1.40;;;1.40;;
19225;SDS011;9747;48.536;12.522;2023-07-30T09:31:07;2.03;;;1.80;;
19225;SDS011;9747;48.536;12.522;2023-07-30T09:33:39;1.80;;;1.70;;
19225;SDS011;9747;48.536;12.522;2023-07-30T09:36:08;1.70;;;1.60;;
19225;SDS011;9747;48.536;12.522;2023-07-30T09:38:38;1.85;;;1.75;;
19225;SDS011;9747;48.536;12.522;2023-07-30T09:41:07;1.90;;;1.80;;
19225;SDS011;9747;48.536;12.522;2023-07-30T09:43:36;2.25;;;2.05;;
19225;SDS011;9747;48.536;12.522;2023-07-30T09:46:05;3.35;;;2.08;;
19225;SDS011;9747;48.536;12.522;2023-07-30T09:48:33;3.72;;;2.20;;
19225;SDS011;9747;48.536;12.522;2023-07-30T09:51:02;2.40;;;2.20;;
19225;SDS011;9747;48.536;12.522;2023-07-30T09:53:31;2.63;;;1.95;;
19225;SDS011;9747;48.536;12.522;2023-07-30T09:56:00;3.17;;;2.10;;
19225;SDS011;9747;48.536;12.522;2023-07-30T09:58:29;4.57;;;2.00;;
19225;SDS011;9747;48.536;12.522;2023-07-30T10:00:57;3.38;;;2.55;;
19225;SDS011;9747;48.536;12.522;2023-07-30T10:03:25;3.42;;;2.30;;
19225;SDS011;9747;48.536;12.522;2023-07-30T10:05:54;3.33;;;2.15;;
19225;SDS011;9747;48.536;12.522;2023-07-30T10:08:25;5.15;;;2.55;;
19225;SDS011;9747;48.536;12.522;2023-07-30T10:10:53;6.20;;;3.05;;
19225;SDS011;9747;48.536;12.522;2023-07-30T10:13:21;4.13;;;2.30;;
19225;SDS011;9747;48.536;12.522;2023-07-30T10:15:51;5.68;;;2.78;;
19225;SDS011;9747;48.536;12.522;2023-07-30T10:18:18;3.47;;;2.40;;
19225;SDS011;9747;48.536;12.522;2023-07-30T10:20:51;3.08;;;2.25;;
19225;SDS011;9747;48.536;12.522;2023-07-30T10:23:22;3.67;;;2.28;;
19225;SDS011;9747;48.536;12.522;2023-07-30T10:25:54;3.35;;;2.17;;
19225;SDS011;9747;48.536;12.522;2023-07-30T10:28:31;2.15;;;1.95;;
19225;SDS011;9747;48.536;12.522;2023-07-30T10:31:03;2.78;;;1.88;;
19225;SDS011;9747;48.536;12.522;2023-07-30T10:33:46;4.45;;;2.05;;
19225;SDS011;9747;48.536;12.522;2023-07-30T10:36:17;7.78;;;2.20;;
19225;SDS011;9747;48.536;12.522;2023-07-30T10:38:46;3.22;;;2.08;;
19225;SDS011;9747;48.536;12.522;2023-07-30T10:41:13;3.63;;;2.55;;
19225;SDS011;9747;48.536;12.522;2023-07-30T10:43:43;3.40;;;2.47;;
19225;SDS011;9747;48.536;12.522;2023-07-30T10:46:15;3.35;;;2.30;;
19225;SDS011;9747;48.536;12.522;2023-07-30T10:48:45;2.75;;;1.88;;
19225;SDS011;9747;48.536;12.522;2023-07-30T10:51:14;2.95;;;2.20;;
19225;SDS011;9747;48.536;12.522;2023-07-30T10:53:43;4.07;;;1.90;;
19225;SDS011;9747;48.536;12.522;2023-07-30T10:56:11;5.10;;;1.98;;
19225;SDS011;9747;48.536;12.522;2023-07-30T10:58:39;2.17;;;1.90;;
19225;SDS011;9747;48.536;12.522;2023-07-30T11:01:07;3.88;;;2.00;;
19225;SDS011;9747;48.536;12.522;2023-07-30T11:03:37;3.00;;;1.98;;
19225;SDS011;9747;48.536;12.522;2023-07-30T11:06:05;2.53;;;2.03;;
19225;SDS011;9747;48.536;12.522;2023-07-30T11:08:33;2.03;;;1.92;;
19225;SDS011;9747;48.536;12.522;2023-07-30T11:11:02;3.13;;;2.00;;
19225;SDS011;9747;48.536;12.522;2023-07-30T11:13:34;2.78;;;1.98;;
19225;SDS011;9747;48.536;12.522;2023-07-30T11:16:04;2.13;;;1.55;;
19225;SDS011;9747;48.536;12.522;2023-07-30T11:18:33;2.53;;;1.95;;
19225;SDS011;9747;48.536;12.522;2023-07-30T11:21:05;2.35;;;1.75;;
19225;SDS011;9747;48.536;12.522;2023-07-30T11:23:34;2.05;;;1.90;;
19225;SDS011;9747;48.536;12.522;2023-07-30T11:26:04;5.55;;;2.00;;
19225;SDS011;9747;48.536;12.522;2023-07-30T11:28:33;2.03;;;1.80;;
19225;SDS011;9747;48.536;12.522;2023-07-30T11:31:03;2.72;;;1.77;;
19225;SDS011;9747;48.536;12.522;2023-07-30T11:33:33;3.75;;;1.90;;
19225;SDS011;9747;48.536;12.522;2023-07-30T11:36:03;2.58;;;1.80;;
19225;SDS011;9747;48.536;12.522;2023-07-30T11:38:32;2.60;;;2.00;;
19225;SDS011;9747;48.536;12.522;2023-07-30T11:40:59;3.65;;;1.80;;
19225;SDS011;9747;48.536;12.522;2023-07-30T11:43:27;2.70;;;2.10;;
19225;SDS011;9747;48.536;12.522;2023-07-30T11:46:07;1.95;;;1.85;;
19225;SDS011;9747;48.536;12.522;2023-07-30T11:48:37;1.85;;;1.75;;
19225;SDS011;9747;48.536;12.522;2023-07-30T11:51:06;2.15;;;1.95;;
19225;SDS011;9747;48.536;12.522;2023-07-30T11:53:44;1.88;;;1.77;;
19225;SDS011;9747;48.536;12.522;2023-07-30T11:56:17;3.95;;;1.83;;
19225;SDS011;9747;48.536;12.522;2023-07-30T11:58:46;2.15;;;1.83;;
19225;SDS011;9747;48.536;12.522;2023-07-30T12:01:15;2.45;;;2.00;;
19225;SDS011;9747;48.536;12.522;2023-07-30T12:03:43;2.40;;;1.60;;
19225;SDS011;9747;48.536;12.522;2023-07-30T12:06:12;3.28;;;1.73;;
19225;SDS011;9747;48.536;12.522;2023-07-30T12:08:41;1.40;;;1.40;;
19225;SDS011;9747;48.536;12.522;2023-07-30T12:11:09;1.95;;;1.50;;
19225;SDS011;9747;48.536;12.522;2023-07-30T12:13:43;1.80;;;1.70;;
19225;SDS011;9747;48.536;12.522;2023-07-30T12:16:12;2.03;;;1.80;;
19225;SDS011;9747;48.536;12.522;2023-07-30T12:18:40;1.88;;;1.75;;
19225;SDS011;9747;48.536;12.522;2023-07-30T12:21:07;1.35;;;1.35;;
19225;SDS011;9747;48.536;12.522;2023-07-30T12:23:38;2.13;;;1.40;;
19225;SDS011;9747;48.536;12.522;2023-07-30T12:26:05;1.95;;;1.40;;
19225;SDS011;9747;48.536;12.522;2023-07-30T12:28:33;2.50;;;1.40;;
19225;SDS011;9747;48.536;12.522;2023-07-30T12:31:00;1.77;;;1.67;;
19225;SDS011;9747;48.536;12.522;2023-07-30T12:33:28;3.30;;;1.65;;
19225;SDS011;9747;48.536;12.522;2023-07-30T12:35:55;2.13;;;1.70;;
19225;SDS011;9747;48.536;12.522;2023-07-30T12:38:23;2.40;;;1.60;;
19225;SDS011;9747;48.536;12.522;2023-07-30T12:40:52;3.25;;;1.58;;
19225;SDS011;9747;48.536;12.522;2023-07-30T12:43:19;7.00;;;1.65;;
19225;SDS011;9747;48.536;12.522;2023-07-30T12:45:47;3.47;;;1.40;;
19225;SDS011;9747;48.536;12.522;2023-07-30T12:48:13;4.45;;;1.58;;
19225;SDS011;9747;48.536;12.522;2023-07-30T12:50:41;3.30;;;1.73;;
19225;SDS011;9747;48.536;12.522;2023-07-30T12:53:08;2.83;;;1.25;;
19225;SDS011;9747;48.536;12.522;2023-07-30T12:55:36;1.58;;;1.48;;
19225;SDS011;9747;48.536;12.522;2023-07-30T12:58:05;2.78;;;1.55;;
19225;SDS011;9747;48.536;12.522;2023-07-30T13:00:33;1.63;;;1.50;;
19225;SDS011;9747;48.536;12.522;2023-07-30T13:03:01;1.92;;;1.40;;
19225;SDS011;9747;48.536;12.522;2023-07-30T13:05:28;2.83;;;1.95;;
19225;SDS011;9747;48.536;12.522;2023-07-30T13:07:56;2.08;;;1.73;;
19225;SDS011;9747;48.536;12.522;2023-07-30T13:10:23;1.80;;;1.70;;
19225;SDS011;9747;48.536;12.522;2023-07-30T13:12:51;3.90;;;1.83;;
19225;SDS011;9747;48.536;12.522;2023-07-30T13:15:19;2.97;;;2.30;;
19225;SDS011;9747;48.536;12.522;2023-07-30T13:17:47;2.20;;;1.75;;
19225;SDS011;9747;48.536;12.522;2023-07-30T13:20:14;1.60;;;1.50;;
19225;SDS011;9747;48.536;12.522;2023-07-30T13:22:42;1.63;;;1.52;;
19225;SDS011;9747;48.536;12.522;2023-07-30T13:25:09;1.98;;;1.73;;
19225;SDS011;9747;48.536;12.522;2023-07-30T13:27:37;3.80;;;1.60;;
19225;SDS011;9747;48.536;12.522;2023-07-30T13:30:05;2.85;;;1.98;;
19225;SDS011;9747;48.536;12.522;2023-07-30T13:32:35;2.53;;;1.48;;
19225;SDS011;9747;48.536;12.522;2023-07-30T13:35:02;3.00;;;1.80;;
19225;SDS011;9747;48.536;12.522;2023-07-30T13:37:30;4.90;;;1.83;;
19225;SDS011;9747;48.536;12.522;2023-07-30T13:39:58;2.20;;;1.70;;
19225;SDS011;9747;48.536;12.522;2023-07-30T13:42:25;1.50;;;1.40;;
19225;SDS011;9747;48.536;12.522;2023-07-30T13:44:53;1.75;;;1.50;;
19225;SDS011;9747;48.536;12.522;2023-07-30T13:47:20;1.55;;;1.45;;
19225;SDS011;9747;48.536;12.522;2023-07-30T13:49:49;1.95;;;1.63;;
19225;SDS011;9747;48.536;12.522;2023-07-30T13:52:17;2.17;;;1.48;;
19225;SDS011;9747;48.536;12.522;2023-07-30T13:54:44;2.45;;;1.23;;
19225;SDS011;9747;48.536;12.522;2023-07-30T13:57:11;4.53;;;1.60;;
19225;SDS011;9747;48.536;12.522;2023-07-30T13:59:39;1.83;;;1.73;;
19225;SDS011;9747;48.536;12.522;2023-07-30T14:02:09;3.38;;;1.90;;
19225;SDS011;9747;48.536;12.522;2023-07-30T14:04:37;3.53;;;1.80;;
19225;SDS011;9747;48.536;12.522;2023-07-30T14:07:05;1.98;;;1.55;;
19225;SDS011;9747;48.536;12.522;2023-07-30T14:09:33;1.85;;;1.60;;
19225;SDS011;9747;48.536;12.522;2023-07-30T14:12:01;4.18;;;2.10;;
19225;SDS011;9747;48.536;12.522;2023-07-30T14:14:29;1.95;;;1.67;;
19225;SDS011;9747;48.536;12.522;2023-07-30T14:16:57;3.30;;;1.70;;
19225;SDS011;9747;48.536;12.522;2023-07-30T14:19:25;1.70;;;1.60;;
19225;SDS011;9747;48.536;12.522;2023-07-30T14:21:54;1.92;;;1.75;;
19225;SDS011;9747;48.536;12.522;2023-07-30T14:24:23;1.60;;;1.50;;
19225;SDS011;9747;48.536;12.522;2023-07-30T14:26:51;2.83;;;1.73;;
19225;SDS011;9747;48.536;12.522;2023-07-30T14:29:18;1.60;;;1.50;;
19225;SDS011;9747;48.536;12.522;2023-07-30T14:31:46;1.83;;;1.73;;
19225;SDS011;9747;48.536;12.522;2023-07-30T14:34:13;1.60;;;1.50;;
19225;SDS011;9747;48.536;12.522;2023-07-30T14:36:41;2.28;;;1.63;;
19225;SDS011;9747;48.536;12.522;2023-07-30T14:39:08;3.25;;;1.60;;
19225;SDS011;9747;48.536;12.522;2023-07-30T14:41:37;1.70;;;1.60;;
19225;SDS011;9747;48.536;12.522;2023-07-30T14:44:05;2.38;;;1.50;;
19225;SDS011;9747;48.536;12.522;2023-07-30T14:46:32;2.08;;;1.98;;
19225;SDS011;9747;48.536;12.522;2023-07-30T14:49:00;1.98;;;1.88;;
19225;SDS011;9747;48.536;12.522;2023-07-30T14:51:28;2.22;;;1.80;;
19225;SDS011;9747;48.536;12.522;2023-07-30T14:53:55;2.22;;;1.80;;